sensor_id;sensor_type;location;lat;lon;timestamp;P1;durP1;ratioP1;P2;durP2;ratioP2
28605;SDS011;46498;49.968;7.754;2023-11-21T00:04:21;2.85;;;1.20;;
28605;SDS011;46498;49.968;7.754;2023-11-21T00:09:22;1.90;;;1.30;;
28605;SDS011;46498;49.968;7.754;2023-11-21T00:14:23;1.67;;;1.37;;
28605;SDS011;46498;49.968;7.754;2023-11-21T00:19:24;2.70;;;1.30;;
28605;SDS011;46498;49.968;7.754;2023-11-21T00:24:25;2.70;;;1.20;;
28605;SDS011;46498;49.968;7.754;2023-11-21T00:29:26;2.90;;;1.10;;
28605;SDS011;46498;49.968;7.754;2023-11-21T00:34:27;4.60;;;1.55;;
28605;SDS011;46498;49.968;7.754;2023-11-21T00:39:28;7.22;;;1.23;;
28605;SDS011;46498;49.968;7.754;2023-11-21T00:44:29;3.62;;;1.08;;
28605;SDS011;46498;49.968;7.754;2023-11-21T00:49:30;2.62;;;0.85;;
28605;SDS011;46498;49.968;7.754;2023-11-21T00:54:31;3.80;;;1.37;;
28605;SDS011;46498;49.968;7.754;2023-11-21T00:59:35;1.20;;;0.60;;
28605;SDS011;46498;49.968;7.754;2023-11-21T01:04:36;2.67;;;1.00;;
28605;SDS011;46498;49.968;7.754;2023-11-21T01:09:37;1.80;;;0.88;;
28605;SDS011;46498;49.968;7.754;2023-11-21T01:14:38;1.55;;;0.98;;
28605;SDS011;46498;49.968;7.754;2023-11-21T01:19:39;1.92;;;1.10;;
28605;SDS011;46498;49.968;7.754;2023-11-21T01:24:40;2.62;;;1.10;;
28605;SDS011;46498;49.968;7.754;2023-11-21T01:29:40;1.40;;;0.90;;
28605;SDS011;46498;49.968;7.754;2023-11-21T01:34:41;3.03;;;1.20;;
28605;SDS011;46498;49.968;7.754;2023-11-21T01:39:43;3.08;;;1.10;;
28605;SDS011;46498;49.968;7.754;2023-11-21T01:44:44;2.90;;;1.02;;
28605;SDS011;46498;49.968;7.754;2023-11-21T01:49:47;0.43;;;0.10;;
28605;SDS011;46498;49.968;7.754;2023-11-21T01:54:48;0.20;;;0.05;;
28605;SDS011;46498;49.968;7.754;2023-11-21T01:59:49;0.03;;;0.00;;
28605;SDS011;46498;49.968;7.754;2023-11-21T02:04:53;0.25;;;0.00;;
28605;SDS011;46498;49.968;7.754;2023-11-21T02:09:54;0.00;;;0.00;;
28605;SDS011;46498;49.968;7.754;2023-11-21T02:14:55;0.10;;;0.00;;
28605;SDS011;46498;49.968;7.754;2023-11-21T02:19:56;0.00;;;0.00;;
28605;SDS011;46498;49.968;7.754;2023-11-21T02:24:57;1.17;;;0.00;;
28605;SDS011;46498;49.968;7.754;2023-11-21T02:29:58;1.37;;;0.10;;
28605;SDS011;46498;49.968;7.754;2023-11-21T02:34:59;0.50;;;0.20;;
28605;SDS011;46498;49.968;7.754;2023-11-21T02:40:03;2.17;;;0.30;;
28605;SDS011;46498;49.968;7.754;2023-11-21T02:45:08;0.62;;;0.40;;
28605;SDS011;46498;49.968;7.754;2023-11-21T02:50:09;0.77;;;0.50;;
28605;SDS011;46498;49.968;7.754;2023-11-21T02:55:10;0.85;;;0.40;;
28605;SDS011;46498;49.968;7.754;2023-11-21T03:00:11;1.60;;;0.40;;
28605;SDS011;46498;49.968;7.754;2023-11-21T03:05:15;0.95;;;0.40;;
28605;SDS011;46498;49.968;7.754;2023-11-21T03:10:16;0.88;;;0.40;;
28605;SDS011;46498;49.968;7.754;2023-11-21T03:15:17;2.30;;;0.40;;
28605;SDS011;46498;49.968;7.754;2023-11-21T03:20:18;1.92;;;0.50;;
28605;SDS011;46498;49.968;7.754;2023-11-21T03:25:18;1.27;;;0.70;;
28605;SDS011;46498;49.968;7.754;2023-11-21T03:30:19;1.05;;;0.65;;
28605;SDS011;46498;49.968;7.754;2023-11-21T03:35:21;2.65;;;0.88;;
28605;SDS011;46498;49.968;7.754;2023-11-21T03:40:22;2.97;;;1.00;;
28605;SDS011;46498;49.968;7.754;2023-11-21T03:45:23;2.95;;;1.35;;
28605;SDS011;46498;49.968;7.754;2023-11-21T03:50:24;4.25;;;1.55;;
28605;SDS011;46498;49.968;7.754;2023-11-21T03:55:25;2.92;;;1.50;;
28605;SDS011;46498;49.968;7.754;2023-11-21T04:00:27;2.90;;;1.42;;
28605;SDS011;46498;49.968;7.754;2023-11-21T04:05:28;3.37;;;1.23;;
28605;SDS011;46498;49.968;7.754;2023-11-21T04:10:29;4.10;;;1.62;;
28605;SDS011;46498;49.968;7.754;2023-11-21T04:15:30;4.37;;;1.55;;
28605;SDS011;46498;49.968;7.754;2023-11-21T04:20:31;2.83;;;1.92;;
28605;SDS011;46498;49.968;7.754;2023-11-21T04:25:32;5.43;;;2.03;;
28605;SDS011;46498;49.968;7.754;2023-11-21T04:30:32;3.67;;;2.05;;
28605;SDS011;46498;49.968;7.754;2023-11-21T04:35:33;4.80;;;2.67;;
28605;SDS011;46498;49.968;7.754;2023-11-21T04:40:35;5.93;;;2.70;;
28605;SDS011;46498;49.968;7.754;2023-11-21T04:45:36;5.15;;;3.03;;
28605;SDS011;46498;49.968;7.754;2023-11-21T04:50:37;3.83;;;2.80;;
28605;SDS011;46498;49.968;7.754;2023-11-21T04:55:38;6.68;;;3.80;;
28605;SDS011;46498;49.968;7.754;2023-11-21T05:00:39;4.65;;;3.87;;
28605;SDS011;46498;49.968;7.754;2023-11-21T05:05:40;7.37;;;4.07;;
28605;SDS011;46498;49.968;7.754;2023-11-21T05:10:41;9.73;;;3.95;;
28605;SDS011;46498;49.968;7.754;2023-11-21T05:15:42;6.40;;;3.97;;
28605;SDS011;46498;49.968;7.754;2023-11-21T05:20:43;5.53;;;3.78;;
28605;SDS011;46498;49.968;7.754;2023-11-21T05:25:44;6.78;;;3.10;;
28605;SDS011;46498;49.968;7.754;2023-11-21T05:30:46;3.50;;;2.72;;
28605;SDS011;46498;49.968;7.754;2023-11-21T05:35:47;5.97;;;3.67;;
28605;SDS011;46498;49.968;7.754;2023-11-21T05:40:51;3.25;;;2.35;;
28605;SDS011;46498;49.968;7.754;2023-11-21T05:45:52;3.87;;;2.30;;
28605;SDS011;46498;49.968;7.754;2023-11-21T05:50:53;4.15;;;1.62;;
28605;SDS011;46498;49.968;7.754;2023-11-21T05:55:54;2.15;;;1.37;;
28605;SDS011;46498;49.968;7.754;2023-11-21T06:00:55;3.28;;;1.73;;
28605;SDS011;46498;49.968;7.754;2023-11-21T06:05:56;6.55;;;1.83;;
28605;SDS011;46498;49.968;7.754;2023-11-21T06:10:57;2.20;;;1.58;;
28605;SDS011;46498;49.968;7.754;2023-11-21T06:15:57;4.10;;;1.70;;
28605;SDS011;46498;49.968;7.754;2023-11-21T06:20:58;2.25;;;1.35;;
28605;SDS011;46498;49.968;7.754;2023-11-21T06:26:01;3.20;;;1.57;;
28605;SDS011;46498;49.968;7.754;2023-11-21T06:31:02;2.12;;;1.40;;
28605;SDS011;46498;49.968;7.754;2023-11-21T06:36:06;1.87;;;1.27;;
28605;SDS011;46498;49.968;7.754;2023-11-21T06:41:07;2.47;;;1.30;;
28605;SDS011;46498;49.968;7.754;2023-11-21T06:46:08;3.10;;;1.75;;
28605;SDS011;46498;49.968;7.754;2023-11-21T06:56:19;4.03;;;1.75;;
28605;SDS011;46498;49.968;7.754;2023-11-21T07:01:20;2.45;;;1.30;;
28605;SDS011;46498;49.968;7.754;2023-11-21T07:06:21;1.23;;;1.00;;
28605;SDS011;46498;49.968;7.754;2023-11-21T07:11:22;2.62;;;1.02;;
28605;SDS011;46498;49.968;7.754;2023-11-21T07:16:23;3.35;;;1.27;;
28605;SDS011;46498;49.968;7.754;2023-11-21T07:21:24;3.45;;;1.80;;
28605;SDS011;46498;49.968;7.754;2023-11-21T07:26:25;1.87;;;1.30;;
28605;SDS011;46498;49.968;7.754;2023-11-21T07:31:26;3.03;;;1.60;;
28605;SDS011;46498;49.968;7.754;2023-11-21T07:36:27;5.12;;;1.60;;
28605;SDS011;46498;49.968;7.754;2023-11-21T07:41:29;3.62;;;1.80;;
28605;SDS011;46498;49.968;7.754;2023-11-21T07:51:33;5.95;;;2.58;;
28605;SDS011;46498;49.968;7.754;2023-11-21T07:56:34;5.32;;;2.22;;
28605;SDS011;46498;49.968;7.754;2023-11-21T08:01:34;5.87;;;2.90;;
28605;SDS011;46498;49.968;7.754;2023-11-21T08:06:35;5.30;;;2.85;;
28605;SDS011;46498;49.968;7.754;2023-11-21T08:11:36;5.55;;;3.22;;
28605;SDS011;46498;49.968;7.754;2023-11-21T08:16:39;7.03;;;3.60;;
28605;SDS011;46498;49.968;7.754;2023-11-21T08:21:40;5.55;;;2.70;;
28605;SDS011;46498;49.968;7.754;2023-11-21T08:26:41;7.62;;;3.08;;
28605;SDS011;46498;49.968;7.754;2023-11-21T08:31:42;9.35;;;3.80;;
28605;SDS011;46498;49.968;7.754;2023-11-21T08:36:43;8.52;;;3.35;;
28605;SDS011;46498;49.968;7.754;2023-11-21T08:41:44;4.97;;;3.22;;
28605;SDS011;46498;49.968;7.754;2023-11-21T08:46:46;5.15;;;2.90;;
28605;SDS011;46498;49.968;7.754;2023-11-21T08:51:47;3.95;;;2.03;;
28605;SDS011;46498;49.968;7.754;2023-11-21T08:56:48;4.70;;;2.30;;
28605;SDS011;46498;49.968;7.754;2023-11-21T09:01:50;6.13;;;2.13;;
28605;SDS011;46498;49.968;7.754;2023-11-21T09:06:51;4.78;;;1.67;;
28605;SDS011;46498;49.968;7.754;2023-11-21T09:11:52;5.18;;;2.22;;
28605;SDS011;46498;49.968;7.754;2023-11-21T09:16:53;5.22;;;2.60;;
28605;SDS011;46498;49.968;7.754;2023-11-21T09:21:54;6.62;;;3.75;;
28605;SDS011;46498;49.968;7.754;2023-11-21T09:26:55;10.32;;;5.10;;
28605;SDS011;46498;49.968;7.754;2023-11-21T09:31:56;9.48;;;5.07;;
28605;SDS011;46498;49.968;7.754;2023-11-21T09:36:59;10.32;;;5.65;;
28605;SDS011;46498;49.968;7.754;2023-11-21T09:42:10;13.38;;;5.75;;
28605;SDS011;46498;49.968;7.754;2023-11-21T09:47:16;12.27;;;6.95;;
28605;SDS011;46498;49.968;7.754;2023-11-21T09:52:19;10.95;;;5.90;;
28605;SDS011;46498;49.968;7.754;2023-11-21T09:57:26;10.77;;;5.95;;
28605;SDS011;46498;49.968;7.754;2023-11-21T10:02:28;11.63;;;5.27;;
28605;SDS011;46498;49.968;7.754;2023-11-21T10:12:32;12.52;;;5.22;;
28605;SDS011;46498;49.968;7.754;2023-11-21T10:17:35;9.35;;;4.40;;
28605;SDS011;46498;49.968;7.754;2023-11-21T10:22:43;10.75;;;4.47;;
28605;SDS011;46498;49.968;7.754;2023-11-21T10:27:46;9.27;;;4.53;;
28605;SDS011;46498;49.968;7.754;2023-11-21T10:32:48;7.07;;;4.12;;
28605;SDS011;46498;49.968;7.754;2023-11-21T10:37:49;10.95;;;4.47;;
28605;SDS011;46498;49.968;7.754;2023-11-21T10:43:08;11.25;;;4.10;;
28605;SDS011;46498;49.968;7.754;2023-11-21T10:48:10;11.12;;;4.45;;
28605;SDS011;46498;49.968;7.754;2023-11-21T10:53:16;10.80;;;4.78;;
28605;SDS011;46498;49.968;7.754;2023-11-21T10:58:17;12.43;;;4.22;;
28605;SDS011;46498;49.968;7.754;2023-11-21T11:03:18;9.07;;;4.80;;
28605;SDS011;46498;49.968;7.754;2023-11-21T11:08:20;11.18;;;5.22;;
28605;SDS011;46498;49.968;7.754;2023-11-21T11:13:26;11.20;;;5.35;;
28605;SDS011;46498;49.968;7.754;2023-11-21T11:18:28;11.50;;;5.00;;
28605;SDS011;46498;49.968;7.754;2023-11-21T11:30:28;12.93;;;4.37;;
28605;SDS011;46498;49.968;7.754;2023-11-21T11:38:45;13.60;;;6.12;;
28605;SDS011;46498;49.968;7.754;2023-11-21T11:43:47;11.98;;;5.90;;
28605;SDS011;46498;49.968;7.754;2023-11-21T11:48:48;12.45;;;5.80;;
28605;SDS011;46498;49.968;7.754;2023-11-21T11:54:05;12.63;;;5.60;;
28605;SDS011;46498;49.968;7.754;2023-11-21T11:59:07;8.95;;;4.78;;
28605;SDS011;46498;49.968;7.754;2023-11-21T12:09:35;12.77;;;6.82;;
28605;SDS011;46498;49.968;7.754;2023-11-21T12:19:39;12.70;;;6.47;;
28605;SDS011;46498;49.968;7.754;2023-11-21T12:24:39;13.25;;;6.95;;
28605;SDS011;46498;49.968;7.754;2023-11-21T12:29:40;15.18;;;7.25;;
28605;SDS011;46498;49.968;7.754;2023-11-21T12:34:41;14.75;;;7.18;;
28605;SDS011;46498;49.968;7.754;2023-11-21T12:39:42;15.98;;;7.05;;
28605;SDS011;46498;49.968;7.754;2023-11-21T12:44:45;16.92;;;7.20;;
28605;SDS011;46498;49.968;7.754;2023-11-21T12:49:48;12.65;;;6.85;;
28605;SDS011;46498;49.968;7.754;2023-11-21T12:54:49;13.73;;;6.65;;
28605;SDS011;46498;49.968;7.754;2023-11-21T12:59:50;12.05;;;7.62;;
28605;SDS011;46498;49.968;7.754;2023-11-21T13:09:54;18.73;;;8.07;;
28605;SDS011;46498;49.968;7.754;2023-11-21T13:14:55;21.55;;;7.55;;
28605;SDS011;46498;49.968;7.754;2023-11-21T13:19:56;17.35;;;8.25;;
28605;SDS011;46498;49.968;7.754;2023-11-21T13:24:58;16.15;;;7.18;;
28605;SDS011;46498;49.968;7.754;2023-11-21T13:30:00;15.75;;;8.20;;
28605;SDS011;46498;49.968;7.754;2023-11-21T13:35:01;17.85;;;8.07;;
28605;SDS011;46498;49.968;7.754;2023-11-21T13:40:02;19.70;;;7.85;;
28605;SDS011;46498;49.968;7.754;2023-11-21T13:45:10;16.17;;;8.23;;
28605;SDS011;46498;49.968;7.754;2023-11-21T13:50:12;19.87;;;7.97;;
28605;SDS011;46498;49.968;7.754;2023-11-21T13:55:19;19.42;;;8.20;;
28605;SDS011;46498;49.968;7.754;2023-11-21T14:00:22;15.73;;;8.27;;
28605;SDS011;46498;49.968;7.754;2023-11-21T14:05:41;18.02;;;9.02;;
28605;SDS011;46498;49.968;7.754;2023-11-21T14:10:43;18.40;;;8.77;;
28605;SDS011;46498;49.968;7.754;2023-11-21T14:15:45;21.12;;;9.57;;
28605;SDS011;46498;49.968;7.754;2023-11-21T14:20:47;22.73;;;10.23;;
28605;SDS011;46498;49.968;7.754;2023-11-21T14:25:48;20.75;;;10.60;;
28605;SDS011;46498;49.968;7.754;2023-11-21T14:35:52;18.67;;;9.40;;
28605;SDS011;46498;49.968;7.754;2023-11-21T14:40:53;17.75;;;9.60;;
28605;SDS011;46498;49.968;7.754;2023-11-21T14:45:54;24.02;;;10.07;;
28605;SDS011;46498;49.968;7.754;2023-11-21T14:50:57;26.37;;;10.98;;
28605;SDS011;46498;49.968;7.754;2023-11-21T14:56:31;22.95;;;10.32;;
28605;SDS011;46498;49.968;7.754;2023-11-21T15:01:35;22.77;;;9.77;;
28605;SDS011;46498;49.968;7.754;2023-11-21T15:06:57;20.73;;;9.32;;
28605;SDS011;46498;49.968;7.754;2023-11-21T15:12:00;21.57;;;10.33;;
28605;SDS011;46498;49.968;7.754;2023-11-21T15:17:17;25.35;;;9.23;;
28605;SDS011;46498;49.968;7.754;2023-11-21T15:22:27;26.98;;;10.30;;
28605;SDS011;46498;49.968;7.754;2023-11-21T15:27:29;18.37;;;9.52;;
28605;SDS011;46498;49.968;7.754;2023-11-21T15:32:30;23.40;;;10.50;;
28605;SDS011;46498;49.968;7.754;2023-11-21T15:37:30;20.17;;;9.18;;
28605;SDS011;46498;49.968;7.754;2023-11-21T15:42:32;21.02;;;10.73;;
28605;SDS011;46498;49.968;7.754;2023-11-21T15:47:33;26.27;;;10.55;;
28605;SDS011;46498;49.968;7.754;2023-11-21T15:52:36;19.33;;;10.32;;
28605;SDS011;46498;49.968;7.754;2023-11-21T15:57:56;23.95;;;10.90;;
28605;SDS011;46498;49.968;7.754;2023-11-21T16:02:57;25.50;;;12.32;;
28605;SDS011;46498;49.968;7.754;2023-11-21T16:07:58;25.17;;;10.77;;
28605;SDS011;46498;49.968;7.754;2023-11-21T16:12:59;18.08;;;9.85;;
28605;SDS011;46498;49.968;7.754;2023-11-21T16:18:00;23.87;;;9.63;;
28605;SDS011;46498;49.968;7.754;2023-11-21T16:23:02;26.48;;;11.88;;
28605;SDS011;46498;49.968;7.754;2023-11-21T16:28:03;19.50;;;9.75;;
28605;SDS011;46498;49.968;7.754;2023-11-21T16:33:06;19.50;;;9.83;;
28605;SDS011;46498;49.968;7.754;2023-11-21T16:38:07;21.85;;;10.88;;
28605;SDS011;46498;49.968;7.754;2023-11-21T16:43:09;25.17;;;10.27;;
28605;SDS011;46498;49.968;7.754;2023-11-21T16:48:11;24.30;;;11.40;;
28605;SDS011;46498;49.968;7.754;2023-11-21T16:53:12;26.30;;;11.98;;
28605;SDS011;46498;49.968;7.754;2023-11-21T16:58:13;22.42;;;10.48;;
28605;SDS011;46498;49.968;7.754;2023-11-21T17:03:13;25.40;;;11.25;;
28605;SDS011;46498;49.968;7.754;2023-11-21T17:08:14;25.15;;;12.13;;
28605;SDS011;46498;49.968;7.754;2023-11-21T17:13:16;42.75;;;16.42;;
28605;SDS011;46498;49.968;7.754;2023-11-21T17:18:17;30.40;;;12.80;;
28605;SDS011;46498;49.968;7.754;2023-11-21T17:23:18;27.27;;;12.48;;
28605;SDS011;46498;49.968;7.754;2023-11-21T17:28:19;31.48;;;11.82;;
28605;SDS011;46498;49.968;7.754;2023-11-21T17:33:20;26.48;;;13.23;;
28605;SDS011;46498;49.968;7.754;2023-11-21T17:38:23;27.95;;;12.75;;
28605;SDS011;46498;49.968;7.754;2023-11-21T17:43:24;24.30;;;11.10;;
28605;SDS011;46498;49.968;7.754;2023-11-21T17:48:25;19.17;;;9.90;;
28605;SDS011;46498;49.968;7.754;2023-11-21T17:53:30;19.27;;;9.77;;
28605;SDS011;46498;49.968;7.754;2023-11-21T17:58:31;21.42;;;10.70;;
28605;SDS011;46498;49.968;7.754;2023-11-21T18:03:32;19.40;;;10.82;;
28605;SDS011;46498;49.968;7.754;2023-11-21T18:08:33;20.33;;;10.65;;
28605;SDS011;46498;49.968;7.754;2023-11-21T18:13:35;24.25;;;10.98;;
28605;SDS011;46498;49.968;7.754;2023-11-21T18:18:37;23.12;;;10.55;;
28605;SDS011;46498;49.968;7.754;2023-11-21T18:23:39;22.85;;;11.12;;
28605;SDS011;46498;49.968;7.754;2023-11-21T18:28:40;27.52;;;12.27;;
28605;SDS011;46498;49.968;7.754;2023-11-21T18:33:42;19.00;;;10.35;;
28605;SDS011;46498;49.968;7.754;2023-11-21T18:38:44;21.97;;;11.03;;
28605;SDS011;46498;49.968;7.754;2023-11-21T18:43:45;24.60;;;11.23;;
28605;SDS011;46498;49.968;7.754;2023-11-21T18:48:46;28.10;;;12.20;;
28605;SDS011;46498;49.968;7.754;2023-11-21T18:53:48;28.48;;;12.95;;
28605;SDS011;46498;49.968;7.754;2023-11-21T18:58:49;26.65;;;12.30;;
28605;SDS011;46498;49.968;7.754;2023-11-21T19:03:51;21.00;;;10.63;;
28605;SDS011;46498;49.968;7.754;2023-11-21T19:08:52;22.15;;;10.70;;
28605;SDS011;46498;49.968;7.754;2023-11-21T19:13:54;25.77;;;11.60;;
28605;SDS011;46498;49.968;7.754;2023-11-21T19:18:55;23.27;;;10.05;;
28605;SDS011;46498;49.968;7.754;2023-11-21T19:23:56;21.62;;;10.38;;
28605;SDS011;46498;49.968;7.754;2023-11-21T19:28:57;20.08;;;9.25;;
28605;SDS011;46498;49.968;7.754;2023-11-21T19:33:58;20.42;;;10.32;;
28605;SDS011;46498;49.968;7.754;2023-11-21T19:38:59;16.70;;;9.13;;
28605;SDS011;46498;49.968;7.754;2023-11-21T19:44:00;18.17;;;8.90;;
28605;SDS011;46498;49.968;7.754;2023-11-21T19:49:02;21.23;;;8.97;;
28605;SDS011;46498;49.968;7.754;2023-11-21T19:54:03;16.73;;;7.50;;
28605;SDS011;46498;49.968;7.754;2023-11-21T19:59:07;17.83;;;8.20;;
28605;SDS011;46498;49.968;7.754;2023-11-21T20:04:09;14.60;;;7.72;;
28605;SDS011;46498;49.968;7.754;2023-11-21T20:09:10;19.45;;;8.57;;
28605;SDS011;46498;49.968;7.754;2023-11-21T20:14:12;18.12;;;8.45;;
28605;SDS011;46498;49.968;7.754;2023-11-21T20:19:13;15.65;;;8.27;;
28605;SDS011;46498;49.968;7.754;2023-11-21T20:24:14;18.08;;;7.60;;
28605;SDS011;46498;49.968;7.754;2023-11-21T20:29:14;11.75;;;6.82;;
28605;SDS011;46498;49.968;7.754;2023-11-21T20:34:17;4.78;;;2.22;;
28605;SDS011;46498;49.968;7.754;2023-11-21T20:39:20;2.65;;;1.30;;
28605;SDS011;46498;49.968;7.754;2023-11-21T20:44:21;1.75;;;0.98;;
28605;SDS011;46498;49.968;7.754;2023-11-21T20:49:22;2.10;;;1.00;;
28605;SDS011;46498;49.968;7.754;2023-11-21T20:54:28;2.08;;;0.90;;
28605;SDS011;46498;49.968;7.754;2023-11-21T20:59:28;1.85;;;0.90;;
28605;SDS011;46498;49.968;7.754;2023-11-21T21:04:29;2.28;;;1.33;;
28605;SDS011;46498;49.968;7.754;2023-11-21T21:09:31;4.70;;;1.30;;
28605;SDS011;46498;49.968;7.754;2023-11-21T21:14:33;3.87;;;2.10;;
28605;SDS011;46498;49.968;7.754;2023-11-21T21:19:34;4.62;;;3.30;;
28605;SDS011;46498;49.968;7.754;2023-11-21T21:24:35;7.43;;;4.07;;
28605;SDS011;46498;49.968;7.754;2023-11-21T21:29:36;9.52;;;4.55;;
28605;SDS011;46498;49.968;7.754;2023-11-21T21:34:36;11.95;;;5.18;;
28605;SDS011;46498;49.968;7.754;2023-11-21T21:39:39;7.97;;;4.95;;
28605;SDS011;46498;49.968;7.754;2023-11-21T21:44:40;7.62;;;4.85;;
28605;SDS011;46498;49.968;7.754;2023-11-21T21:49:41;9.50;;;5.18;;
28605;SDS011;46498;49.968;7.754;2023-11-21T21:54:42;6.30;;;4.53;;
28605;SDS011;46498;49.968;7.754;2023-11-21T21:59:43;10.23;;;5.30;;
28605;SDS011;46498;49.968;7.754;2023-11-21T22:04:44;12.95;;;5.40;;
28605;SDS011;46498;49.968;7.754;2023-11-21T22:09:45;9.85;;;4.87;;
28605;SDS011;46498;49.968;7.754;2023-11-21T22:14:46;8.00;;;4.78;;
28605;SDS011;46498;49.968;7.754;2023-11-21T22:19:47;6.80;;;4.50;;
28605;SDS011;46498;49.968;7.754;2023-11-21T22:24:48;9.10;;;3.95;;
28605;SDS011;46498;49.968;7.754;2023-11-21T22:29:49;6.43;;;4.07;;
28605;SDS011;46498;49.968;7.754;2023-11-21T22:34:50;7.55;;;4.57;;
28605;SDS011;46498;49.968;7.754;2023-11-21T22:39:51;10.80;;;4.43;;
28605;SDS011;46498;49.968;7.754;2023-11-21T22:44:52;7.35;;;4.57;;
28605;SDS011;46498;49.968;7.754;2023-11-21T22:49:53;7.47;;;4.28;;
28605;SDS011;46498;49.968;7.754;2023-11-21T22:54:54;7.85;;;4.97;;
28605;SDS011;46498;49.968;7.754;2023-11-21T22:59:55;7.28;;;4.00;;
28605;SDS011;46498;49.968;7.754;2023-11-21T23:04:56;6.12;;;3.87;;
28605;SDS011;46498;49.968;7.754;2023-11-21T23:09:57;5.93;;;3.90;;
28605;SDS011;46498;49.968;7.754;2023-11-21T23:14:58;6.30;;;4.20;;
28605;SDS011;46498;49.968;7.754;2023-11-21T23:19:59;7.30;;;3.90;;
28605;SDS011;46498;49.968;7.754;2023-11-21T23:25:00;7.30;;;4.28;;
28605;SDS011;46498;49.968;7.754;2023-11-21T23:30:02;8.02;;;3.35;;
28605;SDS011;46498;49.968;7.754;2023-11-21T23:35:04;6.37;;;3.40;;
28605;SDS011;46498;49.968;7.754;2023-11-21T23:40:06;6.43;;;3.40;;
28605;SDS011;46498;49.968;7.754;2023-11-21T23:45:07;6.35;;;3.90;;
28605;SDS011;46498;49.968;7.754;2023-11-21T23:50:09;7.55;;;4.18;;
28605;SDS011;46498;49.968;7.754;2023-11-21T23:55:10;7.93;;;3.83;;
